Station: Borroloola

  Atmospheric Gas Attenuation - ITU Rec 676-11   --------------- db/100km ---------------
Date Time Temp RH % AH g/m3 Dew Point Wind Direction Speed kph Gust kph Barometer mB Rainfall Since 9am 24GHz 47GHz 76GHz 122GHz 134GHz 241GHz
07 06:20 20.6 89 15.93 18.7 9 11 1012.1 0 34.8 36.2 66.9 176.8 189.8 658.4
07 06:10 20.5 89 15.83 18.6 7 9 1012 0 34.6 36.1 66.5 175.8 188.5 654.0
07 06:00 20.2 90 15.74 18.5 7 9 1011.7 0 34.5 36.0 66.4 175.3 187.9 651.7
07 05:50 19.6 89 15.02 17.7 7 7 1011.7 0 33.0 34.9 63.5 167.8 178.5 618.9
07 05:40 19.1 89 14.59 17.2 7 9 1011.7 0 32.1 34.3 62.0 163.7 173.2 600.5
07 05:30 19 89 14.5 17.1 6 7 1011.6 0 31.9 34.2 61.7 162.8 172.1 596.6
07 05:20 19.1 89 14.59 17.2 6 6 1011.5 0 32.1 34.3 62.0 163.7 173.2 600.4
07 05:10 18.8 86 13.85 16.4 6 6 1011.3 0 30.5 33.1 58.9 155.4 162.9 564.5
07 04:50 18.9 86 13.93 16.5 7 7 1011.2 0 30.7 33.2 59.1 156.1 163.9 567.8
07 04:40 19 87 14.18 16.8 6 7 1011.2 0 31.2 33.6 60.2 158.9 167.3 579.9
07 04:30 19.1 86 14.1 16.7 6 7 1011 0 31.0 33.4 59.7 157.7 165.9 575.0
07 04:20 19.3 87 14.43 17.1 6 7 1011 0 31.7 33.9 61.1 161.2 170.3 590.4
07 04:10 19.6 90 15.19 17.9 6 6 1011 0 33.3 35.2 64.3 169.8 181.0 627.5
07 04:00 19.4 89 14.85 17.5 7 7 1010.9 0 32.6 34.7 62.9 166.1 176.3 611.3
07 03:50 19 85 13.85 16.4 6 7 1010.9 0 30.5 33.0 58.7 154.9 162.4 562.9
07 03:40 19.3 87 14.43 17.1 0 0 1010.8 0 31.7 33.9 61.1 161.2 170.3 590.3
07 03:30 19.2 83 13.68 16.2 0 0 1010.7 0 30.1 32.6 57.8 152.5 159.5 552.7
07 03:20 19.1 82 13.44 16 0 0 1010.8 0 29.6 32.2 56.8 149.9 156.3 541.4
07 03:10 19.6 83 14.01 16.6 0 0 1010.8 0 30.8 33.1 58.9 155.6 163.5 566.6
07 03:00 19.8 86 14.69 17.4 0 0 1010.8 0 32.3 34.2 61.8 163.3 173.0 599.8
07 02:50 19.8 84 14.35 17 0 0 1010.9 0 31.5 33.6 60.3 159.2 168.0 582.4
07 02:40 20 82 14.17 16.8 0 0 1011 0 31.1 33.2 59.4 156.7 165.0 571.8
07 02:30 20.5 84 14.95 17.7 0 0 1011 0 32.8 34.4 62.4 164.9 175.2 607.7
07 02:20 20.5 81 14.41 17.1 0 0 1011.2 0 31.6 33.4 60.0 158.5 167.4 580.2
07 02:10 21 85 15.57 18.4 2 4 1011.2 0 34.0 35.3 64.9 171.3 183.3 635.8
07 02:00 20.9 84 15.3 18.1 2 9 1011.2 0 33.5 34.9 63.7 168.3 179.5 622.6
07 01:50 20.9 84 15.3 18.1 0 0 1011.5 0 33.5 34.9 63.7 168.3 179.5 622.7
07 01:40 20.8 83 15.03 17.8 0 0 1011.6 0 32.9 34.5 62.6 165.3 175.8 609.7
07 01:30 20.8 83 15.03 17.8 0 0 1011.6 0 32.9 34.5 62.6 165.3 175.8 609.7
07 01:20 20.9 83 15.12 17.9 0 0 1011.8 0 33.1 34.6 62.9 166.2 176.9 613.6
07 01:10 20.7 80 14.4 17.1 0 0 1011.7 0 31.6 33.4 59.9 158.1 166.8 578.4
07 01:00 20.8 80 14.48 17.2 6 9 1011.7 0 31.7 33.5 60.1 158.8 167.8 581.7
07 00:50 20.5 80 14.23 16.9 7 9 1011.8 0 31.2 33.2 59.3 156.5 164.8 571.4
07 00:40 20.6 77 13.78 16.4 0 0 1011.7 0 30.2 32.3 57.2 151.0 158.1 548.1
07 00:30 21.1 81 14.92 17.7 0 0 1011.6 0 32.6 34.1 61.9 163.4 173.5 601.7
07 00:20 21.7 82 15.64 18.5 0 0 1011.7 0 34.1 35.2 64.6 170.7 182.7 633.8
07 00:10 21.6 80 15.17 18 0 0 1011.7 0 33.1 34.4 62.6 165.3 176.0 610.5
07 00:00 21.4 77 14.43 17.2 0 6 1011.6 0 31.6 33.1 59.5 157.0 165.7 574.6
06 23:50 21.9 79 15.24 18.1 6 6 1011.8 0 33.3 34.4 62.7 165.5 176.3 611.7
06 23:40 22 78 15.14 18 6 6 1011.7 0 33.0 34.2 62.1 164.1 174.6 605.8
06 23:30 22.2 77 15.12 18 7 11 1011.6 0 33.0 34.1 61.9 163.4 173.9 603.2
06 23:20 22.4 77 15.29 18.2 6 6 1011.7 0 33.3 34.3 62.5 165.0 175.9 610.2
06 23:10 22.4 78 15.49 18.4 7 9 1011.7 0 33.7 34.6 63.3 167.4 178.8 620.3
06 23:00 22.4 76 15.09 18 2 7 1011.4 0 32.9 33.9 61.6 162.6 173.0 600.0
06 22:50 22.7 78 15.76 18.7 0 0 1011.2 0 34.3 35.0 64.3 169.8 182.0 631.4
06 22:40 22.9 78 15.94 18.9 0 0 1011.1 0 34.7 35.2 64.9 171.5 184.1 638.9
06 22:30 22.9 78 15.94 18.9 0 0 1011 0 34.7 35.2 64.9 171.5 184.1 638.8
06 22:20 22.8 78 15.85 18.8 0 0 1011 0 34.5 35.1 64.6 170.7 183.0 635.1
06 22:10 23 77 15.83 18.7 6 7 1011 0 34.4 35.0 64.3 170.0 182.2 632.4
06 22:00 23.1 76 15.71 18.6 6 7 1010.9 0 34.2 34.7 63.7 168.3 180.2 625.4
06 21:50 23.2 75 15.59 18.5 6 7 1010.9 0 33.9 34.5 63.1 166.7 178.3 618.6
06 21:40 23.3 74 15.47 18.4 6 7 1010.9 0 33.6 34.2 62.5 165.1 176.3 611.7
06 21:30 23.4 74 15.56 18.5 6 7 1010.7 0 33.8 34.3 62.8 165.9 177.3 615.4
06 21:20 23.6 72 15.31 18.3 6 7 1010.6 0 33.3 33.8 61.5 162.5 173.3 601.3
06 21:10 23.7 71 15.19 18.1 6 7 1010.5 0 33.0 33.5 60.9 160.9 171.3 594.5
06 21:00 24.2 70 15.4 18.4 11 17 1010.4 0 33.4 33.7 61.4 162.3 173.2 600.9
06 20:50 24.3 68 15.05 18.2 13 15 1010.4 0 32.7 33.1 59.8 158.1 168.0 583.0
06 20:40 24.6 68 15.3 18.3 13 15 1010.4 0 33.2 33.4 60.7 160.3 170.8 592.9
06 20:30 24.5 67 14.99 18 13 17 1010.1 0 32.5 32.9 59.4 156.9 166.7 578.4
06 20:20 24.9 66 15.11 18.1 13 15 1010.1 0 32.7 32.9 59.6 157.5 167.5 581.3
06 20:10 25.1 64 14.82 17.8 17 20 1010 0 32.1 32.4 58.2 153.8 163.0 565.8
06 20:00 25.3 62 14.51 17.7 15 22 1009.7 0 31.4 31.7 56.8 149.9 158.3 549.4
06 19:50 25.7 61 14.6 17.6 11 13 1009.6 0 31.6 31.7 56.9 150.1 158.7 550.8
06 19:40 25.8 59 14.2 17.4 13 15 1009.5 0 30.8 31.0 55.1 145.5 153.1 531.3
06 19:30 26 59 14.36 17.4 11 17 1009.1 0 31.1 31.2 55.6 146.9 154.8 537.2
06 19:20 26.2 58 14.28 17.3 13 15 1009 0 30.9 31.0 55.1 145.6 153.3 532.1
06 19:10 26.5 57 14.27 17.3 11 13 1008.9 0 30.8 30.9 54.9 144.9 152.6 529.6
06 19:00 26.5 56 14.02 17 11 17 1008.6 0 30.3 30.5 53.9 142.2 149.3 517.9
06 18:50 27 55 14.16 17.2 13 15 1008.6 0 30.6 30.5 54.1 142.8 150.1 521.0
06 18:40 27.2 54 14.05 17.1 17 20 1008.5 0 30.3 30.3 53.5 141.3 148.3 514.6
06 18:30 27.7 53 14.18 17.3 17 24 1008.3 0 30.6 30.3 53.7 141.7 149.0 517.2
06 18:20 27.8 52 13.99 17.3 17 22 1008.3 0 30.2 30.0 52.9 139.5 146.4 507.9
06 18:10 28.1 52 14.22 17.3 19 22 1008.1 0 30.6 30.2 53.6 141.4 148.7 516.3
06 18:00 28.3 51 14.1 17.2 17 22 1007.9 0 30.4 30.0 52.9 139.8 146.8 509.5
06 17:50 28.5 51 14.26 17.4 15 17 1007.9 0 30.7 30.1 53.4 141.1 148.5 515.4
06 17:40 28.9 49 14 17.4 17 20 1007.8 0 30.1 29.6 52.1 137.7 144.4 501.2
06 17:30 29.1 49 14.15 17.3 19 26 1007.6 0 30.4 29.8 52.6 138.8 145.9 506.5
06 17:20 29.3 48 14.02 17.2 24 28 1007.6 0 30.1 29.5 51.9 137.2 143.9 499.5
06 17:10 29.6 47 13.95 17.4 22 26 1007.4 0 30.0 29.3 51.5 135.9 142.4 494.4
06 17:00 29.9 45 13.58 17 24 35 1007.2 0 29.2 28.6 49.9 131.6 137.3 476.4
06 16:50 30.3 44 13.56 17 19 24 1007.2 0 29.1 28.4 49.5 130.8 136.3 473.1
06 16:40 31.2 44 14.24 17.5 22 26 1007.1 0 30.4 29.2 51.5 136.1 143.1 497.0
06 16:30 31.7 42 13.96 17.2 20 28 1007 0 29.8 28.6 50.2 132.4 138.8 481.8
06 16:20 31.7 40 13.29 16.8 22 26 1007 0 28.4 27.6 47.7 125.8 130.6 453.5
06 16:10 32.9 34 12.04 15 13 17 1006.9 0 25.8 25.4 42.6 112.2 114.2 396.1
06 16:00 33.4 32 11.64 14.5 19 24 1006.8 0 24.9 24.7 40.9 107.9 109.0 378.0
06 15:50 32.4 33 11.38 14.5 11 15 1007 0 24.5 24.6 40.6 106.8 107.4 372.4
06 15:40 33.1 33 11.81 14.7 24 28 1007 0 25.3 25.1 41.7 109.8 111.3 386.1
06 15:30 32.8 34 11.98 14.9 20 30 1007.1 0 25.7 25.4 42.4 111.8 113.7 394.3
06 15:20 33.1 33 11.81 15.1 15 17 1007.2 0 25.3 25.1 41.7 109.8 111.3 386.2
06 15:10 31.6 36 11.9 14.7 26 30 1007.3 0 25.6 25.6 42.8 112.7 114.5 397.0
06 15:00 32.1 35 11.88 15.1 20 32 1007.4 0 25.5 25.4 42.4 111.9 113.6 393.8
06 14:50 32.4 35 12.07 15 22 26 1007.6 0 25.9 25.6 43.0 113.2 115.3 400.0
06 14:40 32.2 33 11.26 14.3 11 15 1007.7 0 24.2 24.6 40.3 106.1 106.4 368.8
06 14:30 31.6 36 11.9 14.7 20 33 1007.8 0 25.6 25.6 42.8 112.8 114.5 397.1
06 14:20 32.7 34 11.92 15.2 19 26 1007.9 0 25.6 25.3 42.3 111.5 113.2 392.6
06 14:10 32.6 36 12.55 16 19 24 1008.1 0 26.9 26.3 44.6 117.5 120.6 418.5
06 14:00 32.9 35 12.4 15.8 24 37 1008 0 26.5 26.0 43.9 115.7 118.4 410.9
06 13:50 32.1 35 11.88 15.1 22 28 1008.2 0 25.5 25.5 42.5 111.9 113.6 394.0
06 13:40 32.3 38 13.04 16.2 19 20 1008.5 0 27.9 27.1 46.5 122.7 126.8 440.3

Last Refresh: 07-Aug-2020 06:38:07

Most of the information presented on this site is sourced from the Bureau of Meteorology.  Copyright in all material sourced from the Bureau of Meteorology resides with the Commonwealth of Australia.